Airfield :
LOGIN :

Register | Disclaimer

   EN    FR    IT 

 










Legend :    VFR   Marginal VFR   IFR   Intensive IFR   Very Intensive IFR
Visi :
Ceiling :
>= 8 km
>= 3000ft
5 to 8 km
1000 to 3000 ft
1500m to 5 km
500 to 1000 ft
800 to 1500m
200 to 500 ft
< 800m
< 200 ft
Symbols :   Thunderstorms  Fog  Heavy snow  Heavy precipitations  Wind > 20 kt
SIGMETs :     Misc.  Thunderstorms  Icing  Turbulence  Mountain Waves  Volcanic Ashes






- Airport Elevation : 326 ft
- IATA code : LCG


LECO - A Coruna

CURRENT METAR :
  • 291050Z 31017G32KT 260V350 9999 -RA FEW018 SCT024 BKN032 08/07 Q1021 TEMPO 3000 RA BKN010

EXPIRED METARs :
  • 291042Z 31024G35KT 3000 RA BKN018 BKN025 07/05 Q1021 NOSIG
  • 291000Z 31018G32KT 260V360 9999 FEW016 SCT023 BKN032 10/07 Q1020 TEMPO 3000 RA BKN010
  • 290930Z 29013G29KT 240V320 9999 SCT016 BKN022 11/09 Q1019 RERA TEMPO 3000 RA BKN010
  • 290913Z 27008KT 240V300 2000 RA BR SCT012 BKN020 BKN045 10/09 Q1020 NOSIG
  • 290900Z 28010KT 230V020 9999 SCT012 BKN021 BKN045 10/09 Q1019 RERA TEMPO 3000 RA BKN010
  • 290842Z 30012G24KT 250V340 9999 -RA SCT012 BKN025 BKN045 10/09 Q1019 TEMPO 3000 RA BKN010
  • 290830Z 28014KT 220V300 4000 RA BR SCT017 BKN027 BKN037 10/09 Q1019 NOSIG
  • 290800Z 28013G25KT 230V330 9999 -RA FEW017 BKN027 BKN037 10/09 Q1019 TEMPO 3000 RA BKN010
  • 290700Z 21010KT 170V240 9999 FEW026 BKN032 11/09 Q1018 TEMPO 3000 RA BKN010
  • 290630Z 21008KT 9999 FEW026 BKN032 11/09 Q1019 TEMPO 3000 RA BKN010
  • 290600Z 18006KT 150V230 9999 FEW026 BKN036 10/08 Q1019 TEMPO 3000 RA BKN010

TAF TAF LECO
Valid from the 29 at 09:00 until the 01 at 09:00 UTC


290800Z 2909/0109 29009KT 9999 FEW020 BKN030 TX12/2915Z TN07/2921Z
TEMPO 2909/2914 3000 SHRA SCT025TCU
TEMPO 2909/2916 30020G34KT
PROB40
TEMPO 2923/0109 23010KT 3000 RA



MET'MAP, your aeronautical weather chart ! - Copyright ORBIFLY December 2007 - Disclaimer

ORBIFLY MET'MAP TEAM :

Programming & Development : Alexandra Zaïnal
Original concept : Baudouin d'Aumeries
Technical & hardware support : Manuel Goepfert
Assistance : Marc-Olivier Méhu




SOURCES & CREDITS :

   NOAA